sensor_id;sensor_type;location;lat;lon;timestamp;temperature;humidity
59977;DHT22;45837;51.076;3.578;2022-11-04T00:01:48;20.70;65.60
59977;DHT22;45837;51.076;3.578;2022-11-04T00:04:16;20.80;65.50
59977;DHT22;45837;51.076;3.578;2022-11-04T00:06:41;20.80;65.50
59977;DHT22;45837;51.076;3.578;2022-11-04T00:09:10;20.70;65.30
59977;DHT22;45837;51.076;3.578;2022-11-04T00:11:36;20.70;65.40
59977;DHT22;45837;51.076;3.578;2022-11-04T00:14:21;20.70;65.20
59977;DHT22;45837;51.076;3.578;2022-11-04T00:16:47;20.70;65.30
59977;DHT22;45837;51.076;3.578;2022-11-04T00:19:31;20.70;65.40
59977;DHT22;45837;51.076;3.578;2022-11-04T00:22:17;20.70;65.40
59977;DHT22;45837;51.076;3.578;2022-11-04T00:25:02;20.70;65.60
59977;DHT22;45837;51.076;3.578;2022-11-04T00:27:46;20.70;65.40
59977;DHT22;45837;51.076;3.578;2022-11-04T00:30:31;20.60;65.50
59977;DHT22;45837;51.076;3.578;2022-11-04T00:32:57;20.60;65.60
59977;DHT22;45837;51.076;3.578;2022-11-04T00:35:47;20.60;65.50
59977;DHT22;45837;51.076;3.578;2022-11-04T00:38:14;20.60;65.40
59977;DHT22;45837;51.076;3.578;2022-11-04T00:40:39;20.60;65.20
59977;DHT22;45837;51.076;3.578;2022-11-04T00:43:05;20.60;65.20
59977;DHT22;45837;51.076;3.578;2022-11-04T00:45:31;20.60;65.30
59977;DHT22;45837;51.076;3.578;2022-11-04T00:47:57;20.60;65.20
59977;DHT22;45837;51.076;3.578;2022-11-04T00:50:23;20.70;65.10
59977;DHT22;45837;51.076;3.578;2022-11-04T00:52:48;20.60;65.00
59977;DHT22;45837;51.076;3.578;2022-11-04T00:55:14;20.60;64.90
59977;DHT22;45837;51.076;3.578;2022-11-04T00:57:40;20.60;65.10
59977;DHT22;45837;51.076;3.578;2022-11-04T01:00:06;20.60;64.90
59977;DHT22;45837;51.076;3.578;2022-11-04T01:02:32;20.60;64.90
59977;DHT22;45837;51.076;3.578;2022-11-04T01:04:58;20.60;64.90
59977;DHT22;45837;51.076;3.578;2022-11-04T01:07:24;20.60;64.90
59977;DHT22;45837;51.076;3.578;2022-11-04T01:09:50;20.60;65.10
59977;DHT22;45837;51.076;3.578;2022-11-04T01:12:15;20.60;64.90
59977;DHT22;45837;51.076;3.578;2022-11-04T01:14:41;20.60;65.00
59977;DHT22;45837;51.076;3.578;2022-11-04T01:17:07;20.60;64.80
59977;DHT22;45837;51.076;3.578;2022-11-04T01:19:33;20.60;64.90
59977;DHT22;45837;51.076;3.578;2022-11-04T01:21:59;20.60;64.80
59977;DHT22;45837;51.076;3.578;2022-11-04T01:24:25;20.60;64.90
59977;DHT22;45837;51.076;3.578;2022-11-04T01:26:51;20.60;64.90
59977;DHT22;45837;51.076;3.578;2022-11-04T01:29:16;20.60;64.90
59977;DHT22;45837;51.076;3.578;2022-11-04T01:31:42;20.60;64.80
59977;DHT22;45837;51.076;3.578;2022-11-04T01:34:08;20.60;64.90
59977;DHT22;45837;51.076;3.578;2022-11-04T01:36:34;20.60;64.80
59977;DHT22;45837;51.076;3.578;2022-11-04T01:39:00;20.60;64.80
59977;DHT22;45837;51.076;3.578;2022-11-04T01:41:28;20.60;64.80
59977;DHT22;45837;51.076;3.578;2022-11-04T01:44:03;20.50;64.70
59977;DHT22;45837;51.076;3.578;2022-11-04T01:46:50;20.60;64.80
59977;DHT22;45837;51.076;3.578;2022-11-04T01:49:35;20.60;64.70
59977;DHT22;45837;51.076;3.578;2022-11-04T01:52:06;20.50;64.60
59977;DHT22;45837;51.076;3.578;2022-11-04T01:54:34;20.50;64.60
59977;DHT22;45837;51.076;3.578;2022-11-04T01:57:01;20.50;64.70
59977;DHT22;45837;51.076;3.578;2022-11-04T01:59:33;20.50;64.80
59977;DHT22;45837;51.076;3.578;2022-11-04T02:01:59;20.50;64.70
59977;DHT22;45837;51.076;3.578;2022-11-04T02:04:26;20.50;64.70
59977;DHT22;45837;51.076;3.578;2022-11-04T02:06:59;20.50;64.70
59977;DHT22;45837;51.076;3.578;2022-11-04T02:09:29;20.50;64.60
59977;DHT22;45837;51.076;3.578;2022-11-04T02:11:56;20.50;64.60
59977;DHT22;45837;51.076;3.578;2022-11-04T02:14:40;20.50;64.60
59977;DHT22;45837;51.076;3.578;2022-11-04T02:31:22;20.40;64.60
59977;DHT22;45837;51.076;3.578;2022-11-04T02:33:59;20.40;64.70
59977;DHT22;45837;51.076;3.578;2022-11-04T02:38:59;20.40;64.70
59977;DHT22;45837;51.076;3.578;2022-11-04T02:41:49;20.40;64.50
59977;DHT22;45837;51.076;3.578;2022-11-04T02:52:02;20.40;64.30
59977;DHT22;45837;51.076;3.578;2022-11-04T02:54:49;20.40;64.40
59977;DHT22;45837;51.076;3.578;2022-11-04T02:57:20;20.40;64.30
59977;DHT22;45837;51.076;3.578;2022-11-04T03:00:06;20.40;64.30
59977;DHT22;45837;51.076;3.578;2022-11-04T03:02:44;20.40;64.20
59977;DHT22;45837;51.076;3.578;2022-11-04T03:05:18;20.40;64.50
59977;DHT22;45837;51.076;3.578;2022-11-04T03:07:46;20.40;64.40
59977;DHT22;45837;51.076;3.578;2022-11-04T03:10:24;20.40;64.30
59977;DHT22;45837;51.076;3.578;2022-11-04T03:13:03;20.40;64.30
59977;DHT22;45837;51.076;3.578;2022-11-04T03:15:33;20.40;64.30
59977;DHT22;45837;51.076;3.578;2022-11-04T03:18:07;20.40;64.40
59977;DHT22;45837;51.076;3.578;2022-11-04T03:20:39;20.40;64.20
59977;DHT22;45837;51.076;3.578;2022-11-04T03:23:06;20.40;64.50
59977;DHT22;45837;51.076;3.578;2022-11-04T03:25:43;20.30;64.30
59977;DHT22;45837;51.076;3.578;2022-11-04T03:28:34;20.40;64.30
59977;DHT22;45837;51.076;3.578;2022-11-04T03:31:04;20.40;64.30
59977;DHT22;45837;51.076;3.578;2022-11-04T03:33:42;20.40;64.20
59977;DHT22;45837;51.076;3.578;2022-11-04T03:36:09;20.40;64.20
59977;DHT22;45837;51.076;3.578;2022-11-04T03:38:36;20.30;64.20
59977;DHT22;45837;51.076;3.578;2022-11-04T03:41:19;20.30;64.00
59977;DHT22;45837;51.076;3.578;2022-11-04T03:43:46;20.40;64.20
59977;DHT22;45837;51.076;3.578;2022-11-04T03:46:12;20.30;64.00
59977;DHT22;45837;51.076;3.578;2022-11-04T03:48:38;20.30;64.10
59977;DHT22;45837;51.076;3.578;2022-11-04T03:51:04;20.30;64.00
59977;DHT22;45837;51.076;3.578;2022-11-04T03:53:31;20.30;64.10
59977;DHT22;45837;51.076;3.578;2022-11-04T03:59:08;20.30;63.90
59977;DHT22;45837;51.076;3.578;2022-11-04T04:01:57;20.30;63.90
59977;DHT22;45837;51.076;3.578;2022-11-04T04:04:31;20.30;63.90
59977;DHT22;45837;51.076;3.578;2022-11-04T04:07:15;20.30;64.00
59977;DHT22;45837;51.076;3.578;2022-11-04T04:09:52;20.30;63.90
59977;DHT22;45837;51.076;3.578;2022-11-04T04:12:32;20.30;64.00
59977;DHT22;45837;51.076;3.578;2022-11-04T04:15:16;20.20;64.10
59977;DHT22;45837;51.076;3.578;2022-11-04T04:17:49;20.30;64.00
59977;DHT22;45837;51.076;3.578;2022-11-04T04:20:24;20.30;64.00
59977;DHT22;45837;51.076;3.578;2022-11-04T04:22:54;20.30;64.00
59977;DHT22;45837;51.076;3.578;2022-11-04T04:25:23;20.30;64.10
59977;DHT22;45837;51.076;3.578;2022-11-04T04:28:10;20.20;64.00
59977;DHT22;45837;51.076;3.578;2022-11-04T04:30:38;20.30;64.00
59977;DHT22;45837;51.076;3.578;2022-11-04T04:33:08;20.20;63.90
59977;DHT22;45837;51.076;3.578;2022-11-04T04:35:41;20.30;63.90
59977;DHT22;45837;51.076;3.578;2022-11-04T04:38:18;20.30;63.90
59977;DHT22;45837;51.076;3.578;2022-11-04T04:43:59;20.30;63.90
59977;DHT22;45837;51.076;3.578;2022-11-04T04:46:44;20.20;63.90
59977;DHT22;45837;51.076;3.578;2022-11-04T04:49:12;20.20;64.00
59977;DHT22;45837;51.076;3.578;2022-11-04T04:51:40;20.20;64.00
59977;DHT22;45837;51.076;3.578;2022-11-04T04:54:07;20.20;63.90
59977;DHT22;45837;51.076;3.578;2022-11-04T04:56:33;20.20;64.00
59977;DHT22;45837;51.076;3.578;2022-11-04T04:58:58;20.20;64.00
59977;DHT22;45837;51.076;3.578;2022-11-04T05:01:24;20.20;63.90
59977;DHT22;45837;51.076;3.578;2022-11-04T05:03:50;20.20;63.80
59977;DHT22;45837;51.076;3.578;2022-11-04T05:06:16;20.20;63.90
59977;DHT22;45837;51.076;3.578;2022-11-04T05:08:42;20.20;63.90
59977;DHT22;45837;51.076;3.578;2022-11-04T05:11:07;20.20;63.80
59977;DHT22;45837;51.076;3.578;2022-11-04T05:13:34;20.20;63.70
59977;DHT22;45837;51.076;3.578;2022-11-04T05:16:04;20.20;63.60
59977;DHT22;45837;51.076;3.578;2022-11-04T05:18:31;20.20;63.60
59977;DHT22;45837;51.076;3.578;2022-11-04T05:20:56;20.20;63.80
59977;DHT22;45837;51.076;3.578;2022-11-04T05:23:22;20.20;63.70
59977;DHT22;45837;51.076;3.578;2022-11-04T05:25:48;20.20;63.70
59977;DHT22;45837;51.076;3.578;2022-11-04T05:28:14;20.20;64.30
59977;DHT22;45837;51.076;3.578;2022-11-04T05:30:40;20.20;63.70
59977;DHT22;45837;51.076;3.578;2022-11-04T05:33:05;20.20;63.70
59977;DHT22;45837;51.076;3.578;2022-11-04T05:35:32;20.20;63.70
59977;DHT22;45837;51.076;3.578;2022-11-04T05:37:58;20.10;63.60
59977;DHT22;45837;51.076;3.578;2022-11-04T05:40:24;20.20;63.70
59977;DHT22;45837;51.076;3.578;2022-11-04T05:42:50;20.20;63.70
59977;DHT22;45837;51.076;3.578;2022-11-04T05:45:16;20.10;63.60
59977;DHT22;45837;51.076;3.578;2022-11-04T05:47:42;20.20;63.60
59977;DHT22;45837;51.076;3.578;2022-11-04T05:50:08;20.20;63.70
59977;DHT22;45837;51.076;3.578;2022-11-04T05:52:33;20.10;64.30
59977;DHT22;45837;51.076;3.578;2022-11-04T05:54:59;20.10;63.60
59977;DHT22;45837;51.076;3.578;2022-11-04T05:57:25;20.20;63.70
59977;DHT22;45837;51.076;3.578;2022-11-04T05:59:51;20.10;63.60
59977;DHT22;45837;51.076;3.578;2022-11-04T06:02:16;20.10;63.60
59977;DHT22;45837;51.076;3.578;2022-11-04T06:04:42;20.10;63.70
59977;DHT22;45837;51.076;3.578;2022-11-04T06:07:08;20.10;63.70
59977;DHT22;45837;51.076;3.578;2022-11-04T06:09:34;20.10;63.90
59977;DHT22;45837;51.076;3.578;2022-11-04T06:12:08;20.10;63.60
59977;DHT22;45837;51.076;3.578;2022-11-04T06:14:34;20.10;63.60
59977;DHT22;45837;51.076;3.578;2022-11-04T06:17:00;20.10;63.60
59977;DHT22;45837;51.076;3.578;2022-11-04T06:19:26;20.10;63.40
59977;DHT22;45837;51.076;3.578;2022-11-04T06:21:52;20.10;63.40
59977;DHT22;45837;51.076;3.578;2022-11-04T06:24:18;20.10;63.50
59977;DHT22;45837;51.076;3.578;2022-11-04T06:26:43;20.10;63.40
59977;DHT22;45837;51.076;3.578;2022-11-04T06:29:10;20.10;63.40
59977;DHT22;45837;51.076;3.578;2022-11-04T06:31:36;20.10;63.40
59977;DHT22;45837;51.076;3.578;2022-11-04T06:34:02;20.10;63.10
59977;DHT22;45837;51.076;3.578;2022-11-04T06:36:28;20.10;63.40
59977;DHT22;45837;51.076;3.578;2022-11-04T06:38:54;20.10;63.00
59977;DHT22;45837;51.076;3.578;2022-11-04T06:41:20;20.10;63.20
59977;DHT22;45837;51.076;3.578;2022-11-04T06:43:45;20.10;63.50
59977;DHT22;45837;51.076;3.578;2022-11-04T06:46:26;20.10;64.30
59977;DHT22;45837;51.076;3.578;2022-11-04T06:48:54;20.10;65.10
59977;DHT22;45837;51.076;3.578;2022-11-04T06:51:20;20.20;65.90
59977;DHT22;45837;51.076;3.578;2022-11-04T06:53:46;20.20;65.60
59977;DHT22;45837;51.076;3.578;2022-11-04T06:56:12;20.40;65.50
59977;DHT22;45837;51.076;3.578;2022-11-04T06:58:37;20.50;65.20
59977;DHT22;45837;51.076;3.578;2022-11-04T07:01:03;20.60;65.10
59977;DHT22;45837;51.076;3.578;2022-11-04T07:03:29;20.70;64.90
59977;DHT22;45837;51.076;3.578;2022-11-04T07:05:55;20.80;65.10
59977;DHT22;45837;51.076;3.578;2022-11-04T07:08:21;20.90;65.00
59977;DHT22;45837;51.076;3.578;2022-11-04T07:10:46;20.90;64.70
59977;DHT22;45837;51.076;3.578;2022-11-04T07:13:13;21.00;65.50
59977;DHT22;45837;51.076;3.578;2022-11-04T07:15:38;21.00;64.60
59977;DHT22;45837;51.076;3.578;2022-11-04T07:18:05;21.00;64.90
59977;DHT22;45837;51.076;3.578;2022-11-04T07:20:32;21.10;65.00
59977;DHT22;45837;51.076;3.578;2022-11-04T07:22:58;21.10;64.40
59977;DHT22;45837;51.076;3.578;2022-11-04T07:25:24;21.20;64.30
59977;DHT22;45837;51.076;3.578;2022-11-04T07:27:50;21.20;64.30
59977;DHT22;45837;51.076;3.578;2022-11-04T07:30:16;21.20;64.00
59977;DHT22;45837;51.076;3.578;2022-11-04T07:32:45;21.30;63.90
59977;DHT22;45837;51.076;3.578;2022-11-04T07:35:10;21.30;63.80
59977;DHT22;45837;51.076;3.578;2022-11-04T07:37:36;21.30;63.90
59977;DHT22;45837;51.076;3.578;2022-11-04T07:40:04;21.30;63.90
59977;DHT22;45837;51.076;3.578;2022-11-04T07:42:30;21.20;64.20
59977;DHT22;45837;51.076;3.578;2022-11-04T07:45:03;21.20;64.40
59977;DHT22;45837;51.076;3.578;2022-11-04T07:47:30;21.20;64.20
59977;DHT22;45837;51.076;3.578;2022-11-04T07:49:56;21.20;64.20
59977;DHT22;45837;51.076;3.578;2022-11-04T07:52:22;21.20;64.20
59977;DHT22;45837;51.076;3.578;2022-11-04T07:54:48;21.20;64.00
59977;DHT22;45837;51.076;3.578;2022-11-04T07:57:14;21.20;63.90
59977;DHT22;45837;51.076;3.578;2022-11-04T07:59:40;21.20;63.70
59977;DHT22;45837;51.076;3.578;2022-11-04T08:02:06;21.20;63.60
59977;DHT22;45837;51.076;3.578;2022-11-04T08:04:32;21.20;63.70
59977;DHT22;45837;51.076;3.578;2022-11-04T08:06:58;21.10;63.70
59977;DHT22;45837;51.076;3.578;2022-11-04T08:09:24;21.10;63.50
59977;DHT22;45837;51.076;3.578;2022-11-04T08:11:50;21.10;63.60
59977;DHT22;45837;51.076;3.578;2022-11-04T08:14:15;21.10;63.50
59977;DHT22;45837;51.076;3.578;2022-11-04T08:16:41;21.10;63.50
59977;DHT22;45837;51.076;3.578;2022-11-04T08:19:07;21.10;63.70
59977;DHT22;45837;51.076;3.578;2022-11-04T08:21:33;21.10;63.70
59977;DHT22;45837;51.076;3.578;2022-11-04T08:23:59;21.20;63.80
59977;DHT22;45837;51.076;3.578;2022-11-04T08:26:27;21.20;63.60
59977;DHT22;45837;51.076;3.578;2022-11-04T08:28:53;21.20;63.70
59977;DHT22;45837;51.076;3.578;2022-11-04T08:31:27;21.10;63.70
59977;DHT22;45837;51.076;3.578;2022-11-04T08:33:54;21.10;63.60
59977;DHT22;45837;51.076;3.578;2022-11-04T08:36:26;21.10;64.50
59977;DHT22;45837;51.076;3.578;2022-11-04T08:38:52;21.20;63.90
59977;DHT22;45837;51.076;3.578;2022-11-04T08:41:22;21.10;63.70
59977;DHT22;45837;51.076;3.578;2022-11-04T08:43:48;21.10;63.80
59977;DHT22;45837;51.076;3.578;2022-11-04T08:46:14;21.10;63.80
59977;DHT22;45837;51.076;3.578;2022-11-04T08:48:41;21.10;63.90
59977;DHT22;45837;51.076;3.578;2022-11-04T08:51:12;21.10;63.90
59977;DHT22;45837;51.076;3.578;2022-11-04T08:53:38;21.20;63.90
59977;DHT22;45837;51.076;3.578;2022-11-04T08:56:17;21.20;64.00
59977;DHT22;45837;51.076;3.578;2022-11-04T08:58:43;21.20;64.80
59977;DHT22;45837;51.076;3.578;2022-11-04T09:01:09;21.10;64.10
59977;DHT22;45837;51.076;3.578;2022-11-04T09:03:39;21.10;64.00
59977;DHT22;45837;51.076;3.578;2022-11-04T09:06:11;21.10;64.10
59977;DHT22;45837;51.076;3.578;2022-11-04T09:08:38;21.10;64.20
59977;DHT22;45837;51.076;3.578;2022-11-04T09:11:09;21.10;64.30
59977;DHT22;45837;51.076;3.578;2022-11-04T09:13:35;21.20;64.10
59977;DHT22;45837;51.076;3.578;2022-11-04T09:16:02;21.10;64.00
59977;DHT22;45837;51.076;3.578;2022-11-04T09:18:29;21.20;64.00
59977;DHT22;45837;51.076;3.578;2022-11-04T09:20:58;21.20;64.10
59977;DHT22;45837;51.076;3.578;2022-11-04T09:23:25;21.10;64.10
59977;DHT22;45837;51.076;3.578;2022-11-04T09:25:51;21.10;64.40
59977;DHT22;45837;51.076;3.578;2022-11-04T09:28:17;21.20;64.50
59977;DHT22;45837;51.076;3.578;2022-11-04T09:30:43;21.10;64.50
59977;DHT22;45837;51.076;3.578;2022-11-04T09:33:08;21.10;64.30
59977;DHT22;45837;51.076;3.578;2022-11-04T09:35:34;21.00;64.00
59977;DHT22;45837;51.076;3.578;2022-11-04T09:38:00;21.20;64.10
59977;DHT22;45837;51.076;3.578;2022-11-04T09:40:27;21.20;64.10
59977;DHT22;45837;51.076;3.578;2022-11-04T09:45:44;21.20;64.00
59977;DHT22;45837;51.076;3.578;2022-11-04T09:48:41;21.20;64.00
59977;DHT22;45837;51.076;3.578;2022-11-04T09:51:09;21.10;64.00
59977;DHT22;45837;51.076;3.578;2022-11-04T09:53:45;21.10;64.10
59977;DHT22;45837;51.076;3.578;2022-11-04T09:56:14;21.10;64.10
59977;DHT22;45837;51.076;3.578;2022-11-04T09:58:41;21.20;64.20
59977;DHT22;45837;51.076;3.578;2022-11-04T10:07:23;21.20;64.00
59977;DHT22;45837;51.076;3.578;2022-11-04T10:23:41;21.10;64.20
59977;DHT22;45837;51.076;3.578;2022-11-04T10:26:30;21.10;64.00
59977;DHT22;45837;51.076;3.578;2022-11-04T10:29:04;21.10;64.30
59977;DHT22;45837;51.076;3.578;2022-11-04T10:31:30;21.10;64.30
59977;DHT22;45837;51.076;3.578;2022-11-04T10:34:03;21.00;64.10
59977;DHT22;45837;51.076;3.578;2022-11-04T10:36:30;21.10;64.00
59977;DHT22;45837;51.076;3.578;2022-11-04T10:38:57;21.10;64.20
59977;DHT22;45837;51.076;3.578;2022-11-04T10:41:33;21.10;64.20
59977;DHT22;45837;51.076;3.578;2022-11-04T10:44:09;21.10;64.10
59977;DHT22;45837;51.076;3.578;2022-11-04T10:47:06;21.10;64.00
59977;DHT22;45837;51.076;3.578;2022-11-04T10:52:17;21.10;64.00
59977;DHT22;45837;51.076;3.578;2022-11-04T10:54:45;21.10;64.00
59977;DHT22;45837;51.076;3.578;2022-11-04T10:57:17;21.10;63.80
59977;DHT22;45837;51.076;3.578;2022-11-04T10:59:59;21.10;63.80
59977;DHT22;45837;51.076;3.578;2022-11-04T11:02:42;21.10;63.90
59977;DHT22;45837;51.076;3.578;2022-11-04T11:07:49;21.10;64.10
59977;DHT22;45837;51.076;3.578;2022-11-04T11:10:27;21.10;64.20
59977;DHT22;45837;51.076;3.578;2022-11-04T11:13:05;21.10;64.00
59977;DHT22;45837;51.076;3.578;2022-11-04T11:15:34;21.10;63.80
59977;DHT22;45837;51.076;3.578;2022-11-04T11:20:33;21.10;64.10
59977;DHT22;45837;51.076;3.578;2022-11-04T11:23:03;21.10;64.00
59977;DHT22;45837;51.076;3.578;2022-11-04T11:25:38;21.10;64.00
59977;DHT22;45837;51.076;3.578;2022-11-04T11:28:12;21.10;63.60
59977;DHT22;45837;51.076;3.578;2022-11-04T11:33:27;21.10;62.80
59977;DHT22;45837;51.076;3.578;2022-11-04T11:36:22;21.10;62.30
59977;DHT22;45837;51.076;3.578;2022-11-04T11:39:05;21.10;61.90
59977;DHT22;45837;51.076;3.578;2022-11-04T11:44:31;21.10;62.00
59977;DHT22;45837;51.076;3.578;2022-11-04T11:47:08;21.10;62.10
59977;DHT22;45837;51.076;3.578;2022-11-04T11:49:40;21.10;61.90
59977;DHT22;45837;51.076;3.578;2022-11-04T11:54:50;21.10;62.60
59977;DHT22;45837;51.076;3.578;2022-11-04T12:00:14;21.20;62.20
59977;DHT22;45837;51.076;3.578;2022-11-04T12:03:16;21.10;62.30
59977;DHT22;45837;51.076;3.578;2022-11-04T12:05:41;21.10;62.80
59977;DHT22;45837;51.076;3.578;2022-11-04T12:08:27;21.20;62.70
59977;DHT22;45837;51.076;3.578;2022-11-04T12:11:20;21.20;62.60
59977;DHT22;45837;51.076;3.578;2022-11-04T12:13:52;21.10;62.30
59977;DHT22;45837;51.076;3.578;2022-11-04T12:16:32;21.10;62.50
59977;DHT22;45837;51.076;3.578;2022-11-04T12:22:08;21.10;62.00
59977;DHT22;45837;51.076;3.578;2022-11-04T12:30:21;21.10;61.70
59977;DHT22;45837;51.076;3.578;2022-11-04T12:33:27;21.10;61.70
59977;DHT22;45837;51.076;3.578;2022-11-04T12:41:03;21.10;61.40
59977;DHT22;45837;51.076;3.578;2022-11-04T13:00:26;21.00;63.90
59977;DHT22;45837;51.076;3.578;2022-11-04T13:03:15;21.00;63.40
59977;DHT22;45837;51.076;3.578;2022-11-04T13:06:07;21.00;65.30
59977;DHT22;45837;51.076;3.578;2022-11-04T13:08:39;21.00;64.60
59977;DHT22;45837;51.076;3.578;2022-11-04T13:14:17;21.00;65.50
59977;DHT22;45837;51.076;3.578;2022-11-04T13:16:49;21.00;65.60
59977;DHT22;45837;51.076;3.578;2022-11-04T13:21:48;21.00;65.60
59977;DHT22;45837;51.076;3.578;2022-11-04T13:24:27;21.00;65.00
59977;DHT22;45837;51.076;3.578;2022-11-04T13:26:59;21.00;63.10
59977;DHT22;45837;51.076;3.578;2022-11-04T13:29:27;20.90;60.70
59977;DHT22;45837;51.076;3.578;2022-11-04T13:32:19;20.90;61.90
59977;DHT22;45837;51.076;3.578;2022-11-04T13:38:04;20.90;61.60
59977;DHT22;45837;51.076;3.578;2022-11-04T13:43:47;20.80;61.00
59977;DHT22;45837;51.076;3.578;2022-11-04T13:49:05;20.80;61.00
59977;DHT22;45837;51.076;3.578;2022-11-04T13:54:03;20.80;60.90
59977;DHT22;45837;51.076;3.578;2022-11-04T13:56:35;20.80;60.80
59977;DHT22;45837;51.076;3.578;2022-11-04T13:59:18;20.80;60.60
59977;DHT22;45837;51.076;3.578;2022-11-04T14:01:44;20.80;60.60
59977;DHT22;45837;51.076;3.578;2022-11-04T14:06:55;20.80;60.40
59977;DHT22;45837;51.076;3.578;2022-11-04T14:14:40;20.70;60.10
59977;DHT22;45837;51.076;3.578;2022-11-04T14:20:26;20.70;60.00
59977;DHT22;45837;51.076;3.578;2022-11-04T14:23:04;20.70;58.40
59977;DHT22;45837;51.076;3.578;2022-11-04T14:25:32;20.60;59.30
59977;DHT22;45837;51.076;3.578;2022-11-04T14:28:00;20.60;59.20
59977;DHT22;45837;51.076;3.578;2022-11-04T14:33:26;20.60;59.20
59977;DHT22;45837;51.076;3.578;2022-11-04T14:35:54;20.50;58.40
59977;DHT22;45837;51.076;3.578;2022-11-04T14:38:29;20.50;58.60
59977;DHT22;45837;51.076;3.578;2022-11-04T14:41:19;20.50;58.90
59977;DHT22;45837;51.076;3.578;2022-11-04T14:43:46;20.50;59.00
59977;DHT22;45837;51.076;3.578;2022-11-04T14:46:20;20.50;59.20
59977;DHT22;45837;51.076;3.578;2022-11-04T14:48:49;20.50;59.10
59977;DHT22;45837;51.076;3.578;2022-11-04T14:51:29;20.50;58.60
59977;DHT22;45837;51.076;3.578;2022-11-04T14:54:16;20.40;58.70
59977;DHT22;45837;51.076;3.578;2022-11-04T14:56:45;20.50;58.90
59977;DHT22;45837;51.076;3.578;2022-11-04T14:59:20;20.40;59.00
59977;DHT22;45837;51.076;3.578;2022-11-04T15:01:47;20.50;59.10
59977;DHT22;45837;51.076;3.578;2022-11-04T15:06:57;20.50;58.60
59977;DHT22;45837;51.076;3.578;2022-11-04T15:09:39;20.60;58.60
59977;DHT22;45837;51.076;3.578;2022-11-04T15:14:53;20.60;58.90
59977;DHT22;45837;51.076;3.578;2022-11-04T15:17:20;20.70;58.90
59977;DHT22;45837;51.076;3.578;2022-11-04T15:19:51;20.80;59.00
59977;DHT22;45837;51.076;3.578;2022-11-04T15:22:18;20.80;58.70
59977;DHT22;45837;51.076;3.578;2022-11-04T15:24:45;20.90;58.60
59977;DHT22;45837;51.076;3.578;2022-11-04T15:27:16;20.80;58.50
59977;DHT22;45837;51.076;3.578;2022-11-04T15:30:00;20.90;58.80
59977;DHT22;45837;51.076;3.578;2022-11-04T15:32:31;20.90;58.40
59977;DHT22;45837;51.076;3.578;2022-11-04T15:34:57;21.00;58.80
59977;DHT22;45837;51.076;3.578;2022-11-04T15:37:25;21.00;58.70
59977;DHT22;45837;51.076;3.578;2022-11-04T15:39:55;21.00;58.70
59977;DHT22;45837;51.076;3.578;2022-11-04T15:42:24;21.00;58.80
59977;DHT22;45837;51.076;3.578;2022-11-04T15:48:32;21.00;58.70
59977;DHT22;45837;51.076;3.578;2022-11-04T15:51:21;21.00;58.60
59977;DHT22;45837;51.076;3.578;2022-11-04T15:56:23;21.00;58.50
59977;DHT22;45837;51.076;3.578;2022-11-04T15:58:51;21.00;58.50
59977;DHT22;45837;51.076;3.578;2022-11-04T16:01:18;21.00;58.60
59977;DHT22;45837;51.076;3.578;2022-11-04T16:04:05;21.00;58.70
59977;DHT22;45837;51.076;3.578;2022-11-04T16:06:39;21.10;58.60
59977;DHT22;45837;51.076;3.578;2022-11-04T16:11:39;21.00;58.60
59977;DHT22;45837;51.076;3.578;2022-11-04T16:14:22;21.00;58.60
59977;DHT22;45837;51.076;3.578;2022-11-04T16:16:49;21.00;58.60
59977;DHT22;45837;51.076;3.578;2022-11-04T16:19:19;21.00;58.60
59977;DHT22;45837;51.076;3.578;2022-11-04T16:21:46;21.00;58.60
59977;DHT22;45837;51.076;3.578;2022-11-04T16:24:20;21.00;58.70
59977;DHT22;45837;51.076;3.578;2022-11-04T16:26:47;21.00;61.40
59977;DHT22;45837;51.076;3.578;2022-11-04T16:29:18;21.00;61.30
59977;DHT22;45837;51.076;3.578;2022-11-04T16:31:45;21.00;61.60
59977;DHT22;45837;51.076;3.578;2022-11-04T16:34:12;21.00;61.80
59977;DHT22;45837;51.076;3.578;2022-11-04T16:36:38;21.00;62.10
59977;DHT22;45837;51.076;3.578;2022-11-04T16:39:05;21.10;61.90
59977;DHT22;45837;51.076;3.578;2022-11-04T16:41:39;21.10;61.90
59977;DHT22;45837;51.076;3.578;2022-11-04T16:44:14;21.20;61.70
59977;DHT22;45837;51.076;3.578;2022-11-04T16:46:41;21.20;61.70
59977;DHT22;45837;51.076;3.578;2022-11-04T16:49:08;21.20;62.00
59977;DHT22;45837;51.076;3.578;2022-11-04T16:51:35;21.20;61.90
59977;DHT22;45837;51.076;3.578;2022-11-04T16:54:00;21.20;61.80
59977;DHT22;45837;51.076;3.578;2022-11-04T16:56:26;21.30;62.00
59977;DHT22;45837;51.076;3.578;2022-11-04T16:58:52;21.20;61.80
59977;DHT22;45837;51.076;3.578;2022-11-04T17:01:18;21.20;61.80
59977;DHT22;45837;51.076;3.578;2022-11-04T17:03:45;21.30;61.90
59977;DHT22;45837;51.076;3.578;2022-11-04T17:06:13;21.30;62.10
59977;DHT22;45837;51.076;3.578;2022-11-04T17:08:39;21.30;61.70
59977;DHT22;45837;51.076;3.578;2022-11-04T17:11:07;21.20;61.50
59977;DHT22;45837;51.076;3.578;2022-11-04T17:13:33;21.20;61.40
59977;DHT22;45837;51.076;3.578;2022-11-04T17:15:59;21.20;61.60
59977;DHT22;45837;51.076;3.578;2022-11-04T17:18:25;21.20;61.40
59977;DHT22;45837;51.076;3.578;2022-11-04T17:20:54;21.20;61.30
59977;DHT22;45837;51.076;3.578;2022-11-04T17:23:20;21.10;61.20
59977;DHT22;45837;51.076;3.578;2022-11-04T17:25:47;21.10;61.10
59977;DHT22;45837;51.076;3.578;2022-11-04T17:28:13;21.10;61.50
59977;DHT22;45837;51.076;3.578;2022-11-04T17:30:40;21.10;62.10
59977;DHT22;45837;51.076;3.578;2022-11-04T17:33:11;21.10;62.90
59977;DHT22;45837;51.076;3.578;2022-11-04T17:35:38;21.10;64.40
59977;DHT22;45837;51.076;3.578;2022-11-04T17:38:04;21.00;65.70
59977;DHT22;45837;51.076;3.578;2022-11-04T17:40:30;21.00;66.10
59977;DHT22;45837;51.076;3.578;2022-11-04T17:42:56;21.00;66.50
59977;DHT22;45837;51.076;3.578;2022-11-04T17:45:41;21.00;67.00
59977;DHT22;45837;51.076;3.578;2022-11-04T17:48:08;21.00;66.70
59977;DHT22;45837;51.076;3.578;2022-11-04T17:50:37;21.00;66.80
59977;DHT22;45837;51.076;3.578;2022-11-04T17:53:04;21.00;66.60
59977;DHT22;45837;51.076;3.578;2022-11-04T17:55:29;21.00;66.90
59977;DHT22;45837;51.076;3.578;2022-11-04T17:57:55;21.00;66.80
59977;DHT22;45837;51.076;3.578;2022-11-04T18:00:22;21.00;66.60
59977;DHT22;45837;51.076;3.578;2022-11-04T18:02:54;21.00;66.40
59977;DHT22;45837;51.076;3.578;2022-11-04T18:05:20;21.00;66.00
59977;DHT22;45837;51.076;3.578;2022-11-04T18:07:46;21.00;65.90
59977;DHT22;45837;51.076;3.578;2022-11-04T18:10:11;21.00;65.90
59977;DHT22;45837;51.076;3.578;2022-11-04T18:12:37;21.00;65.80
59977;DHT22;45837;51.076;3.578;2022-11-04T18:15:11;21.00;65.70
59977;DHT22;45837;51.076;3.578;2022-11-04T18:17:41;21.00;65.50
59977;DHT22;45837;51.076;3.578;2022-11-04T18:20:12;21.00;65.40